Current Weather

Burlington Muni

Burlington, Wisconsin (KBUU)

Report from: Friday, June 21, 2024 6:55 PM CDT
Current time: Friday, June 21, 2024 7:30 PM CDT

Nearby weather – Weather history – Daily summaries
Weather forecast

Temperature23.7°C (74.7°F)
Dew point19.0°C (66.2°F)
Winds 10 kts (5.1 m/s, 11.5 mph) North-Northeast (20°)
Visibility10 mi. (16.1 km)
Clouds Scattered clouds 6,500 ft. (1,981 m)
Ceiling: Broken clouds 7,500 ft. (2,286 m)
Altimeter30.10 in.Hg (1019 mB)
Relative humidity75 %
Density altitude1,106 ft. (337 m)
Max temp last 6 hours33.0°C (91.4°F)
Min temp last 6 hours23.7°C (74.7°F)
Remarks Fully automated report
Automated weather observing station with precipitation discriminator
Present weather sensor not operating
Flight conditions Visual Meteorological Conditions
Raw dataKBUU 212355Z AUTO 02010KT 10SM SCT065 BKN075 24/19 A3010 RMK AO2 T02370190 10330 20237 PWINO
An error has occurred. This application may no longer respond until reloaded. Reload 🗙